createdAt,value
2024-04-06T00:02:02.513Z,15.89
2024-04-06T00:07:04.096Z,16.03
2024-04-06T00:12:05.654Z,16.19
2024-04-06T00:17:06.831Z,16.29
2024-04-06T00:22:07.986Z,16.40
2024-04-06T00:27:09.153Z,16.42
2024-04-06T00:32:10.231Z,16.43
2024-04-06T00:37:11.318Z,16.43
2024-04-06T00:42:12.472Z,16.49
2024-04-06T00:47:13.787Z,16.53
2024-04-06T00:52:15.079Z,16.58
2024-04-06T00:57:16.450Z,16.57
2024-04-06T01:02:17.701Z,16.53
2024-04-06T01:07:19.352Z,16.52
2024-04-06T01:12:20.746Z,16.51
2024-04-06T01:17:22.189Z,16.53
2024-04-06T01:22:23.357Z,16.50
2024-04-06T01:27:24.649Z,16.42
2024-04-06T01:32:25.867Z,16.36
2024-04-06T01:37:28.780Z,16.40
2024-04-06T01:42:30.041Z,16.37
2024-04-06T01:47:31.294Z,16.35
2024-04-06T01:52:32.767Z,16.31
2024-04-06T01:57:34.347Z,16.31
2024-04-06T02:02:35.742Z,16.31
2024-04-06T02:07:37.308Z,16.28
2024-04-06T02:12:38.602Z,16.23
2024-04-06T02:17:39.847Z,16.17
2024-04-06T02:22:41.170Z,16.20
2024-04-06T02:27:42.330Z,16.29
2024-04-06T02:32:43.580Z,16.29
2024-04-06T02:37:45.404Z,16.35
2024-04-06T02:42:47.034Z,16.45
2024-04-06T02:47:48.307Z,16.45
2024-04-06T02:52:49.468Z,16.48
2024-04-06T02:57:50.822Z,16.55
2024-04-06T03:02:51.996Z,16.62
2024-04-06T03:07:53.683Z,16.63
2024-04-06T03:12:55.124Z,16.58
2024-04-06T03:17:56.473Z,16.55
2024-04-06T03:23:05.364Z,16.55
2024-04-06T03:28:06.634Z,16.44
2024-04-06T03:33:07.800Z,16.36
2024-04-06T03:38:09.036Z,16.28
2024-04-06T03:43:10.279Z,16.22
2024-04-06T03:48:11.520Z,16.09
2024-04-06T03:53:13.192Z,16.00
2024-04-06T03:58:14.859Z,15.89
2024-04-06T04:07:11.066Z,15.86
2024-04-06T04:12:12.976Z,15.86
2024-04-06T04:17:14.822Z,15.79
2024-04-06T04:22:16.912Z,15.63
2024-04-06T04:27:19.396Z,15.56
2024-04-06T04:32:21.081Z,15.50
2024-04-06T04:37:22.866Z,15.43
2024-04-06T04:42:24.852Z,15.43
2024-04-06T04:47:26.856Z,15.40
2024-04-06T04:52:28.679Z,15.34
2024-04-06T04:57:30.575Z,15.26
2024-04-06T05:02:32.235Z,15.32
2024-04-06T05:07:33.919Z,15.39
2024-04-06T05:12:35.685Z,15.43
2024-04-06T05:17:38.811Z,15.48
2024-04-06T05:22:40.757Z,15.57
2024-04-06T05:27:42.760Z,15.74
2024-04-06T05:32:44.777Z,15.98
2024-04-06T05:37:46.518Z,16.27
2024-04-06T05:42:48.708Z,16.57
2024-04-06T05:47:51.379Z,16.83
2024-04-06T05:52:53.254Z,17.05
2024-04-06T05:57:55.153Z,17.24
2024-04-06T06:02:57.402Z,17.48
2024-04-06T06:08:00.047Z,17.74
2024-04-06T06:13:01.899Z,17.97
2024-04-06T06:18:04.644Z,18.21
2024-04-06T06:23:06.779Z,18.56
2024-04-06T06:28:08.673Z,18.94
2024-04-06T06:33:10.602Z,19.23
2024-04-06T06:38:12.605Z,19.24
2024-04-06T09:08:21.104Z,24.15
2024-04-06T09:13:25.004Z,24.26
2024-04-06T09:18:30.657Z,24.32
2024-04-06T09:23:32.820Z,24.39
2024-04-06T09:28:35.544Z,24.93
2024-04-06T09:33:37.734Z,25.37
2024-04-06T09:38:39.970Z,25.08
2024-04-06T09:43:41.671Z,25.16
2024-04-06T09:48:44.136Z,25.26
2024-04-06T09:53:48.156Z,25.20
2024-04-06T09:58:49.824Z,25.01
2024-04-06T10:03:51.576Z,24.77
2024-04-06T10:08:57.968Z,24.80
2024-04-06T10:14:04.057Z,24.91
2024-04-06T10:19:07.711Z,25.09
2024-04-06T10:24:14.168Z,25.68
2024-04-06T10:29:16.445Z,26.10
2024-04-06T10:34:18.419Z,26.46
2024-04-06T10:39:20.306Z,26.76
2024-04-06T10:44:22.038Z,26.70
2024-04-06T10:49:23.883Z,26.35
2024-04-06T10:54:25.845Z,26.07
2024-04-06T10:59:27.935Z,25.73
2024-04-06T11:04:29.652Z,25.60
2024-04-06T11:09:31.816Z,25.83
2024-04-06T11:14:33.477Z,26.00
2024-04-06T11:19:35.252Z,26.10
2024-04-06T11:24:38.819Z,26.43
2024-04-06T11:29:44.501Z,26.57
2024-04-06T11:34:50.375Z,26.27
2024-04-06T11:39:52.576Z,25.55
2024-04-06T11:44:54.409Z,24.88
2024-04-06T11:49:56.143Z,24.45
2024-04-06T11:54:57.847Z,24.31
2024-04-06T11:59:59.747Z,24.17
2024-04-06T12:05:01.452Z,24.06
2024-04-06T12:10:03.259Z,24.02
2024-04-06T12:15:05.812Z,24.06
2024-04-06T12:20:07.772Z,24.06
2024-04-06T12:25:11.049Z,23.79
2024-04-06T12:30:15.750Z,23.49
2024-04-06T12:35:21.231Z,23.36
2024-04-06T12:40:27.104Z,23.46
2024-04-06T12:45:29.251Z,23.54
2024-04-06T12:50:30.876Z,23.74
2024-04-06T12:55:32.576Z,23.84
2024-04-06T13:00:34.612Z,23.67
2024-04-06T14:02:08.987Z,25.66
2024-04-06T14:07:14.092Z,26.01
2024-04-06T14:12:22.177Z,26.17
2024-04-06T14:17:24.350Z,25.93
2024-04-06T14:22:26.139Z,26.01
2024-04-06T14:27:28.110Z,26.32
2024-04-06T14:32:30.081Z,26.48
2024-04-06T14:37:31.888Z,26.07
2024-04-06T14:42:33.649Z,26.06
2024-04-06T14:47:35.578Z,25.69
2024-04-06T14:52:39.080Z,25.98
2024-04-06T14:57:40.944Z,26.56
2024-04-06T15:02:44.472Z,26.60
2024-04-06T15:07:46.327Z,26.15
2024-04-06T15:12:48.397Z,25.71
2024-04-06T15:17:50.125Z,25.40
2024-04-06T15:22:51.831Z,25.04
2024-04-06T15:27:53.511Z,24.94
2024-04-06T15:32:55.839Z,25.25
2024-04-06T15:37:57.828Z,25.31
2024-04-06T15:42:59.610Z,25.18
2024-04-06T15:48:01.523Z,24.94
2024-04-06T15:53:05.731Z,24.97
2024-04-06T15:58:07.419Z,25.15
2024-04-06T16:03:09.443Z,25.16
2024-04-06T16:08:11.286Z,25.07
2024-04-06T16:13:13.103Z,25.04
2024-04-06T16:18:14.863Z,25.02
2024-04-06T16:23:16.687Z,24.92
2024-04-06T16:28:18.387Z,24.56
2024-04-06T16:33:20.118Z,24.11
2024-04-06T16:38:22.681Z,23.64
2024-04-06T16:43:24.579Z,23.22
2024-04-06T16:48:26.344Z,22.81
2024-04-06T16:53:28.073Z,22.28
2024-04-06T16:58:29.957Z,21.75
2024-04-06T17:03:32.140Z,21.27
2024-04-06T17:08:33.920Z,20.84
2024-04-06T17:13:35.920Z,20.46
2024-04-06T17:18:37.651Z,20.01
2024-04-06T17:23:39.729Z,19.59
2024-04-06T17:28:41.540Z,19.11
2024-04-06T17:33:44.044Z,18.65
2024-04-06T17:38:46.496Z,18.29
2024-04-06T17:43:48.182Z,17.99
2024-04-06T17:48:49.831Z,17.80
2024-04-06T17:53:52.676Z,17.92
2024-04-06T17:58:54.403Z,17.98
2024-04-06T18:03:56.055Z,17.93
2024-04-06T18:08:58.198Z,17.85
2024-04-06T18:13:59.965Z,17.75
2024-04-06T18:19:02.377Z,17.61
2024-04-06T18:24:04.950Z,17.46
2024-04-06T18:29:08.668Z,17.24
2024-04-06T18:34:10.685Z,17.02
2024-04-06T18:39:12.638Z,16.84
2024-04-06T18:44:14.828Z,16.74
2024-04-06T18:49:16.583Z,16.64
2024-04-06T18:54:26.947Z,16.53
2024-04-06T18:59:30.110Z,16.40
2024-04-06T19:04:31.903Z,16.29
2024-04-06T19:09:33.728Z,16.18
2024-04-06T19:14:35.599Z,16.05
2024-04-06T19:19:37.379Z,15.87
2024-04-06T19:24:39.152Z,15.71
2024-04-06T19:29:41.614Z,15.53
2024-04-06T19:34:43.838Z,15.25
2024-04-06T19:39:46.203Z,15.04
2024-04-06T19:44:47.971Z,14.94
2024-04-06T19:49:49.780Z,14.89
2024-04-06T19:54:51.551Z,14.87
2024-04-06T19:59:53.174Z,14.80
2024-04-06T20:04:54.884Z,14.76
2024-04-06T20:09:56.558Z,14.71
2024-04-06T20:14:58.273Z,14.64
2024-04-06T20:20:00.208Z,14.57
2024-04-06T20:25:21.191Z,14.58
2024-04-06T20:30:24.267Z,14.58
2024-04-06T20:35:26.063Z,14.56
2024-04-06T20:40:27.824Z,14.59
2024-04-06T20:45:29.519Z,14.56
2024-04-06T20:50:31.565Z,14.47
2024-04-06T20:55:33.368Z,14.34
2024-04-06T21:00:35.257Z,14.25
2024-04-06T21:05:36.893Z,14.12
2024-04-06T21:10:39.334Z,14.04
2024-04-06T21:15:42.176Z,14.01
2024-04-06T21:20:43.842Z,13.99
2024-04-06T21:25:45.706Z,13.95
2024-04-06T21:30:47.900Z,13.89
2024-04-06T21:51:41.744Z,13.69
2024-04-06T21:56:44.083Z,13.63
2024-04-06T22:01:45.954Z,13.51
2024-04-06T22:06:47.630Z,13.37
2024-04-06T22:11:52.765Z,13.32
2024-04-06T22:16:56.501Z,13.46
2024-04-06T22:21:58.406Z,13.44
2024-04-06T22:27:02.674Z,13.44
2024-04-06T22:32:04.821Z,13.44
2024-04-06T22:37:06.672Z,13.36
2024-04-06T22:42:08.479Z,13.17
2024-04-06T22:47:10.183Z,13.11
2024-04-06T22:52:12.509Z,13.12
2024-04-06T22:57:14.194Z,13.14
2024-04-06T23:02:15.971Z,13.20
2024-04-06T23:07:17.677Z,13.20
2024-04-06T23:12:19.351Z,13.15
2024-04-06T23:17:21.079Z,13.22
2024-04-06T23:22:23.037Z,13.19
2024-04-06T23:27:28.025Z,13.16
2024-04-06T23:32:29.675Z,13.15
2024-04-06T23:37:31.388Z,13.07
2024-04-06T23:42:33.407Z,12.92
2024-04-06T23:47:35.515Z,12.83
2024-04-06T23:52:37.302Z,12.80
2024-04-06T23:57:39.381Z,12.68
